New Century 1 — H9LA — position and weather

sailwx.info

Track history (hours):
 
Tides and Currents Weather Stations Pressure Air Temp Water Temp Dewpoint Dewpoint Depression Visibility Wind Speed Wind Dir Waves Ship Positions

New Century 1

Last reported at 2014-Oct-11 04:18 UTC. Time now 2014-Oct-20 22:55 UTC.
Position N 39°16' W 072°45'.
Warning: this ship's position is 9 days out of date.

Length 200 m; beam 32.3 m.

Type: Cargo ship. MMSI: 355234000.

Date/timePositionNaut miles runAvg speedWind from/ knotsBaromVisibWave heightAir tempDewpointWater temp
2014-Oct-11 04:18N 39°16' W 072°45'1417.7
2014-Oct-11 03:31N 39°28' W 072°55'1717.5
2014-Oct-11 02:33N 39°42' W 073°07'1817.7
2014-Oct-11 01:34N 39°57' W 073°19'1817.6
2014-Oct-11 00:33N 40°11' W 073°33'1716.8
2014-Oct-10 23:33N 40°24' W 073°47'1212.4
2014-Oct-10 22:33N 40°31' W 074°00'9 9.2
2014-Oct-10 21:33N 40°39' W 074°07'3 2.9
2014-Oct-10 20:33N 40°41' W 074°08'0 0.0
2014-Oct-10 19:33N 40°41' W 074°08'0 0.0
2014-Oct-10 18:33N 40°41' W 074°08'0 0.0
2014-Oct-10 17:33N 40°41' W 074°08'0 0.0
2014-Oct-10 16:30N 40°41' W 074°08'0 0.0
2014-Oct-10 15:33N 40°41' W 074°08'0 0.0
2014-Oct-10 14:33N 40°41' W 074°08'0 0.0
2014-Oct-10 13:33N 40°41' W 074°08'0 0.0
2014-Oct-09 23:27N 40°41' W 074°08'5 4.8
2014-Oct-09 22:29N 40°38' W 074°03'1111.3
2014-Oct-09 21:33N 40°30' W 073°55'8 7.9
2014-Oct-09 20:29N 40°24' W 073°47'8 8.2
2014-Oct-09 19:33N 40°16' W 073°46'13 9.8
2014-Oct-09 18:12N 40°03' W 073°44'710.1
2014-Oct-09 17:33N 39°57' W 073°43'1010.1
2014-Oct-09 16:33N 39°46' W 073°41'1616.4
2014-Oct-09 15:32N 39°30' W 073°43'9016.5
2014-Oct-09 10:06N 38°01' W 073°59'25016.7
2014-Oct-08 19:10N 34°07' W 075°46'  
2014-Oct-05 18:00N 26°06' W 076°24'   020 / 101012.5 5.4 0.529.025.027.0
Track history (hours):
 
Tides and Currents Weather Stations Pressure Air Temp Water Temp Dewpoint Dewpoint Depression Visibility Wind Speed Wind Dir Waves Ship Positions

New Century 1

Last reported at 2014-Oct-11 04:18 UTC. Time now 2014-Oct-20 22:55 UTC.
Position N 39°16' W 072°45'.
Warning: this ship's position is 9 days out of date.

Length 200 m; beam 32.3 m.

Type: Cargo ship. MMSI: 355234000.

Date/timePositionNaut miles runAvg speedWind from/ knotsBaromVisibWave heightAir tempDewpointWater temp
2014-Oct-11 04:18N 39°16' W 072°45'1417.7
2014-Oct-11 03:31N 39°28' W 072°55'1717.5
2014-Oct-11 02:33N 39°42' W 073°07'1817.7
2014-Oct-11 01:34N 39°57' W 073°19'1817.6
2014-Oct-11 00:33N 40°11' W 073°33'1716.8
2014-Oct-10 23:33N 40°24' W 073°47'1212.4
2014-Oct-10 22:33N 40°31' W 074°00'9 9.2
2014-Oct-10 21:33N 40°39' W 074°07'3 2.9
2014-Oct-10 20:33N 40°41' W 074°08'0 0.0
2014-Oct-10 19:33N 40°41' W 074°08'0 0.0
2014-Oct-10 18:33N 40°41' W 074°08'0 0.0
2014-Oct-10 17:33N 40°41' W 074°08'0 0.0
2014-Oct-10 16:30N 40°41' W 074°08'0 0.0
2014-Oct-10 15:33N 40°41' W 074°08'0 0.0
2014-Oct-10 14:33N 40°41' W 074°08'0 0.0
2014-Oct-10 13:33N 40°41' W 074°08'0 0.0
2014-Oct-09 23:27N 40°41' W 074°08'5 4.8
2014-Oct-09 22:29N 40°38' W 074°03'1111.3
2014-Oct-09 21:33N 40°30' W 073°55'8 7.9
2014-Oct-09 20:29N 40°24' W 073°47'8 8.2
2014-Oct-09 19:33N 40°16' W 073°46'13 9.8
2014-Oct-09 18:12N 40°03' W 073°44'710.1
2014-Oct-09 17:33N 39°57' W 073°43'1010.1
2014-Oct-09 16:33N 39°46' W 073°41'1616.4
2014-Oct-09 15:32N 39°30' W 073°43'9016.5
2014-Oct-09 10:06N 38°01' W 073°59'25016.7
2014-Oct-08 19:10N 34°07' W 075°46'  
2014-Oct-05 18:00N 26°06' W 076°24'   020 / 101012.5 5.4 0.529.025.027.0

Dump ship's entire track history